Time;durP1;ratioP1;P1;durP2;ratioP2;P2;SDS_P1;SDS_P2;PMS_P1;PMS_P2;Temp;Humidity;BMP_temperature;BMP_pressure;BME280_temperature;BME280_humidity;BME280_pressure;Samples;Min_cycle;Max_cycle;Signal;HPM_P1;HPM_P2
2023/06/02 00:01:23;;;;;;;9.27;2.67;;;11.50;99.90;;;;;;6161913;23;20076;-65
2023/06/02 00:03:49;;;;;;;11.35;2.95;;;11.50;99.90;;;;;;6189065;23;20032;-66
2023/06/02 00:06:15;;;;;;;10.18;2.30;;;11.40;99.90;;;;;;6190121;23;20020;-65
2023/06/02 00:08:41;;;;;;;7.68;2.20;;;11.40;99.90;;;;;;6187804;23;20041;-65
2023/06/02 00:11:09;;;;;;;12.18;2.42;;;11.30;99.90;;;;;;6189758;23;20021;-67
2023/06/02 00:13:35;;;;;;;6.70;2.38;;;11.30;99.90;;;;;;6187776;23;20028;-66
2023/06/02 00:16:01;;;;;;;12.63;2.60;;;11.30;99.90;;;;;;6189188;23;20040;-65
2023/06/02 00:18:27;;;;;;;12.15;3.55;;;11.30;99.90;;;;;;6188527;23;20017;-66
2023/06/02 00:20:56;;;;;;;11.88;2.70;;;11.30;99.90;;;;;;6188746;23;20017;-66
2023/06/02 00:23:22;;;;;;;17.08;3.10;;;11.20;99.90;;;;;;6189517;23;20028;-66
2023/06/02 00:25:48;;;;;;;12.20;3.67;;;11.20;99.90;;;;;;6187247;23;20345;-66
2023/06/02 00:28:13;;;;;;;8.20;2.40;;;11.30;99.90;;;;;;6189805;23;20017;-65
2023/06/02 00:30:39;;;;;;;8.55;2.38;;;11.20;99.90;;;;;;6186783;23;20040;-66
2023/06/02 00:33:05;;;;;;;4.07;2.20;;;11.20;99.90;;;;;;6189775;23;20025;-66
2023/06/02 00:35:31;;;;;;;9.82;2.63;;;11.30;99.90;;;;;;6192258;23;20024;-66
2023/06/02 00:37:57;;;;;;;9.40;2.17;;;11.30;99.90;;;;;;6190001;23;20044;-66
2023/06/02 00:40:23;;;;;;;8.05;2.70;;;11.30;99.90;;;;;;6189069;23;20069;-66
2023/06/02 00:42:49;;;;;;;5.80;2.00;;;11.30;99.90;;;;;;6187323;23;20020;-66
2023/06/02 00:45:16;;;;;;;7.32;2.40;;;11.30;99.90;;;;;;6189021;23;20021;-65
2023/06/02 00:47:42;;;;;;;11.07;2.67;;;11.30;99.90;;;;;;6187131;23;20021;-66
2023/06/02 00:50:08;;;;;;;8.48;3.10;;;11.30;99.90;;;;;;6189015;23;20021;-65
2023/06/02 00:52:34;;;;;;;7.25;2.00;;;11.30;99.90;;;;;;6161137;23;20021;-65
2023/06/02 00:55:03;;;;;;;8.85;2.35;;;11.30;99.90;;;;;;6188307;23;20032;-65
2023/06/02 00:57:34;;;;;;;9.35;2.58;;;11.30;99.90;;;;;;6188656;23;20025;-66
2023/06/02 01:00:03;;;;;;;8.30;2.55;;;11.30;99.90;;;;;;6186426;23;20052;-66
2023/06/02 01:02:28;;;;;;;8.15;2.53;;;11.20;99.90;;;;;;6188416;23;20013;-66
2023/06/02 01:04:57;;;;;;;6.82;2.50;;;11.20;99.90;;;;;;6186650;23;20120;-66
2023/06/02 01:07:25;;;;;;;16.98;2.90;;;11.30;99.90;;;;;;6188797;23;20135;-65
2023/06/02 01:10:00;;;;;;;8.02;2.47;;;11.20;99.90;;;;;;6187395;23;20021;-66
2023/06/02 01:12:27;;;;;;;13.27;2.75;;;11.20;99.90;;;;;;6187667;23;20065;-66
2023/06/02 01:14:53;;;;;;;10.55;2.28;;;11.20;99.90;;;;;;6190201;23;20017;-66
2023/06/02 01:17:19;;;;;;;10.00;2.75;;;11.20;99.90;;;;;;6188706;23;20151;-66
2023/06/02 01:19:49;;;;;;;13.98;3.28;;;11.20;99.90;;;;;;6190865;23;20017;-66
2023/06/02 01:22:23;;;;;;;11.27;2.67;;;11.20;99.90;;;;;;6162222;23;20060;-66
2023/06/02 01:24:50;;;;;;;9.38;2.22;;;11.20;99.90;;;;;;6163422;23;20024;-66
2023/06/02 01:27:16;;;;;;;8.65;2.30;;;11.20;99.90;;;;;;6189926;23;20025;-66
2023/06/02 01:29:43;;;;;;;14.85;3.00;;;11.20;99.90;;;;;;6189292;23;20041;-67
2023/06/02 01:32:25;;;;;;;12.00;2.70;;;11.20;99.90;;;;;;6191040;23;20032;-66
2023/06/02 01:34:56;;;;;;;16.65;3.30;;;11.20;99.90;;;;;;6195248;23;20017;-66
2023/06/02 01:37:24;;;;;;;13.95;2.60;;;11.10;99.90;;;;;;6205409;23;20028;-66
2023/06/02 01:39:53;;;;;;;16.52;2.40;;;11.20;99.90;;;;;;6200468;23;20067;-66
2023/06/02 01:42:20;;;;;;;8.60;2.28;;;11.20;99.90;;;;;;6199331;23;20017;-66
2023/06/02 01:44:46;;;;;;;10.35;3.17;;;11.20;99.90;;;;;;6195346;23;20120;-66
2023/06/02 01:47:12;;;;;;;15.55;3.03;;;11.20;99.90;;;;;;6190169;23;20021;-66
2023/06/02 01:49:38;;;;;;;9.50;3.95;;;11.20;99.90;;;;;;6190697;23;20152;-66
2023/06/02 01:52:04;;;;;;;13.48;2.58;;;11.20;99.90;;;;;;6188427;23;20567;-66
2023/06/02 01:54:30;;;;;;;8.13;3.00;;;11.20;99.90;;;;;;6189981;23;20021;-66
2023/06/02 01:56:55;;;;;;;12.77;3.30;;;11.20;99.90;;;;;;6188298;23;20065;-66
2023/06/02 01:59:22;;;;;;;5.82;1.75;;;11.20;99.90;;;;;;6189497;23;20032;-65
2023/06/02 02:01:48;;;;;;;9.77;2.58;;;11.20;99.90;;;;;;6190014;23;20020;-66
2023/06/02 02:04:13;;;;;;;14.13;2.95;;;11.20;99.90;;;;;;6189483;23;20017;-66
2023/06/02 02:06:40;;;;;;;10.50;3.65;;;11.20;99.90;;;;;;6191879;23;20053;-65
2023/06/02 02:09:07;;;;;;;16.80;4.65;;;11.20;99.90;;;;;;6188190;23;20088;-66
2023/06/02 02:11:34;;;;;;;8.07;2.35;;;11.20;99.90;;;;;;6189797;23;20027;-66
2023/06/02 02:14:04;;;;;;;10.70;2.45;;;11.20;99.90;;;;;;6188824;23;20052;-66
2023/06/02 02:16:30;;;;;;;6.28;2.45;;;11.20;99.90;;;;;;6189546;23;20059;-66
2023/06/02 02:18:58;;;;;;;10.52;2.22;;;11.20;99.90;;;;;;6189687;23;20107;-66
2023/06/02 02:21:25;;;;;;;12.35;2.33;;;11.20;99.90;;;;;;6188418;23;20013;-64
2023/06/02 02:23:51;;;;;;;11.60;2.55;;;11.20;99.90;;;;;;6190172;23;20017;-65
2023/06/02 02:26:18;;;;;;;10.95;2.47;;;11.10;99.90;;;;;;6187749;23;20065;-65
2023/06/02 02:28:44;;;;;;;10.05;2.53;;;11.20;99.90;;;;;;6190048;23;20608;-65
2023/06/02 02:31:11;;;;;;;13.38;3.50;;;11.20;99.90;;;;;;6188862;23;20032;-66
2023/06/02 02:33:37;;;;;;;10.30;2.38;;;11.20;99.90;;;;;;6162706;23;20466;-66
2023/06/02 02:36:03;;;;;;;18.08;2.35;;;11.20;99.90;;;;;;6189725;23;20076;-66
2023/06/02 02:38:28;;;;;;;16.38;2.60;;;11.30;99.90;;;;;;6187499;23;20025;-66
2023/06/02 02:40:54;;;;;;;11.40;2.78;;;11.20;99.90;;;;;;6190113;23;20036;-66
2023/06/02 02:43:21;;;;;;;14.82;2.42;;;11.30;99.90;;;;;;6187986;23;20043;-66
2023/06/02 02:45:47;;;;;;;11.27;3.00;;;11.30;99.90;;;;;;6189699;23;20013;-66
2023/06/02 02:48:13;;;;;;;9.60;2.63;;;11.30;99.90;;;;;;6188376;23;20075;-65
2023/06/02 02:50:38;;;;;;;8.20;3.40;;;11.30;99.90;;;;;;6189404;23;20021;-66
2023/06/02 02:53:04;;;;;;;10.82;3.03;;;11.30;99.90;;;;;;6163821;23;20025;-66
2023/06/02 02:55:32;;;;;;;9.43;2.30;;;11.30;99.90;;;;;;6188683;23;20031;-66
2023/06/02 02:57:59;;;;;;;11.40;2.67;;;11.30;99.90;;;;;;6189900;23;20025;-65
2023/06/02 03:00:25;;;;;;;14.65;2.85;;;11.30;99.90;;;;;;6187820;23;20055;-66
2023/06/02 03:02:51;;;;;;;9.82;2.53;;;11.30;99.90;;;;;;6189707;23;20017;-66
2023/06/02 03:05:17;;;;;;;7.45;2.53;;;11.30;99.90;;;;;;6187758;23;20024;-66
2023/06/02 03:07:44;;;;;;;8.90;2.53;;;11.30;99.90;;;;;;6189366;23;20024;-66
2023/06/02 03:10:10;;;;;;;17.55;2.95;;;11.30;99.90;;;;;;6188987;23;20129;-66
2023/06/02 03:12:36;;;;;;;8.98;2.22;;;11.30;99.90;;;;;;6188245;23;20013;-66
2023/06/02 03:15:02;;;;;;;8.70;2.00;;;11.20;99.90;;;;;;6189794;23;20021;-67
2023/06/02 03:17:29;;;;;;;8.27;2.00;;;11.30;99.90;;;;;;6187606;23;20017;-65
2023/06/02 03:19:55;;;;;;;8.30;2.30;;;11.20;99.90;;;;;;6189881;23;20021;-66
2023/06/02 03:22:21;;;;;;;9.48;2.35;;;11.20;99.90;;;;;;6194939;23;20021;-66
2023/06/02 03:24:48;;;;;;;7.28;2.60;;;11.30;99.90;;;;;;6199951;23;20021;-66
2023/06/02 03:27:15;;;;;;;9.13;2.10;;;11.20;99.90;;;;;;6193605;23;21063;-65
2023/06/02 03:29:42;;;;;;;7.95;2.20;;;11.20;99.90;;;;;;6188336;23;20017;-66
2023/06/02 03:32:12;;;;;;;11.98;3.03;;;11.30;99.90;;;;;;6190075;23;20016;-66
2023/06/02 03:34:40;;;;;;;12.35;1.90;;;11.30;99.90;;;;;;6187586;23;20454;-66
2023/06/02 03:37:07;;;;;;;8.27;2.22;;;11.20;99.90;;;;;;6188727;23;20466;-66
2023/06/02 03:39:33;;;;;;;9.20;2.00;;;11.20;99.90;;;;;;6187810;23;20021;-65
2023/06/02 03:41:59;;;;;;;6.78;2.10;;;11.20;99.90;;;;;;6189011;23;20048;-65
2023/06/02 03:44:25;;;;;;;8.40;1.95;;;11.30;99.90;;;;;;6188897;23;20128;-67
2023/06/02 03:46:50;;;;;;;10.13;2.25;;;11.20;99.90;;;;;;6188182;23;20049;-66
2023/06/02 03:49:16;;;;;;;10.30;1.90;;;11.20;99.90;;;;;;6189866;23;20017;-66
2023/06/02 03:51:43;;;;;;;10.07;2.35;;;11.20;99.90;;;;;;6161099;23;20021;-66
2023/06/02 03:54:09;;;;;;;12.25;2.03;;;11.20;99.90;;;;;;6163048;23;20021;-66
2023/06/02 03:56:35;;;;;;;5.18;2.38;;;11.30;99.90;;;;;;6187937;23;20126;-66
2023/06/02 03:59:00;;;;;;;9.60;2.47;;;11.20;99.90;;;;;;6189214;23;20027;-66
2023/06/02 04:01:27;;;;;;;12.43;2.70;;;11.30;99.90;;;;;;6188654;23;20040;-66
2023/06/02 04:03:53;;;;;;;11.80;3.10;;;11.20;99.90;;;;;;6162251;23;20024;-66
2023/06/02 04:06:19;;;;;;;10.20;2.58;;;11.30;99.90;;;;;;6190084;23;20017;-66
2023/06/02 04:08:46;;;;;;;12.55;2.25;;;11.30;99.90;;;;;;6187765;23;20052;-66
2023/06/02 04:11:12;;;;;;;8.85;2.03;;;11.30;99.90;;;;;;6189804;23;20028;-65
2023/06/02 04:13:38;;;;;;;6.80;2.05;;;11.30;99.90;;;;;;6187864;23;20497;-65
2023/06/02 04:16:04;;;;;;;6.90;1.90;;;11.30;99.90;;;;;;6189431;23;20071;-66
2023/06/02 04:18:31;;;;;;;12.73;3.00;;;11.30;99.90;;;;;;6188341;23;20028;-66
2023/06/02 04:20:57;;;;;;;14.18;2.72;;;11.30;99.90;;;;;;6188625;23;20048;-67
2023/06/02 04:23:23;;;;;;;10.45;2.50;;;11.30;99.90;;;;;;6189546;23;20017;-66
2023/06/02 04:25:49;;;;;;;10.13;2.28;;;11.40;99.90;;;;;;6187176;23;20025;-66
2023/06/02 04:28:16;;;;;;;11.30;2.42;;;11.40;99.90;;;;;;6189915;23;20017;-66
2023/06/02 04:30:42;;;;;;;10.00;2.05;;;11.30;99.90;;;;;;6187946;23;20017;-66
2023/06/02 04:33:08;;;;;;;12.15;2.50;;;11.40;99.90;;;;;;6193564;23;20073;-66
2023/06/02 04:35:35;;;;;;;9.85;2.20;;;11.40;99.90;;;;;;6204034;23;20021;-67
2023/06/02 04:38:02;;;;;;;9.73;2.65;;;11.40;99.90;;;;;;6198295;23;20056;-67
2023/06/02 04:40:28;;;;;;;7.15;2.67;;;11.40;99.90;;;;;;6199764;23;20143;-66
2023/06/02 04:42:54;;;;;;;13.77;2.25;;;11.40;99.90;;;;;;6194351;23;20021;-66
2023/06/02 04:45:20;;;;;;;10.82;2.65;;;11.30;99.90;;;;;;6191716;23;20017;-66
2023/06/02 04:47:46;;;;;;;8.73;3.00;;;11.40;99.90;;;;;;6188052;23;20013;-67
2023/06/02 04:50:15;;;;;;;11.25;2.50;;;11.40;99.90;;;;;;6162390;23;20032;-66
2023/06/02 04:52:42;;;;;;;6.47;2.70;;;11.40;99.90;;;;;;6187897;23;20082;-66
2023/06/02 04:55:10;;;;;;;14.63;3.17;;;11.40;99.90;;;;;;6188016;23;20017;-66
2023/06/02 04:57:36;;;;;;;10.40;2.08;;;11.50;99.90;;;;;;6189121;23;20021;-67
2023/06/02 05:00:07;;;;;;;10.55;2.40;;;11.50;99.90;;;;;;6186391;23;20474;-66
2023/06/02 05:02:32;;;;;;;6.30;2.05;;;11.50;99.90;;;;;;6189368;23;20027;-65
2023/06/02 05:04:59;;;;;;;13.80;2.65;;;11.50;99.90;;;;;;6187224;23;20013;-66
2023/06/02 05:07:25;;;;;;;8.50;2.25;;;11.50;99.90;;;;;;6189208;23;20140;-66
2023/06/02 05:09:51;;;;;;;9.55;2.45;;;11.50;99.90;;;;;;6188037;23;20530;-65
2023/06/02 05:12:18;;;;;;;10.63;2.38;;;11.60;99.90;;;;;;6188403;23;20028;-66
2023/06/02 05:14:44;;;;;;;22.63;4.30;;;11.60;99.90;;;;;;6189591;23;20728;-65
2023/06/02 05:17:10;;;;;;;20.02;3.55;;;11.60;99.90;;;;;;6187496;23;20029;-66
2023/06/02 05:19:39;;;;;;;9.50;1.95;;;11.60;99.90;;;;;;6188933;23;20032;-66
2023/06/02 05:22:05;;;;;;;13.07;2.53;;;11.70;99.90;;;;;;6187215;23;20021;-66
2023/06/02 05:24:31;;;;;;;7.43;3.03;;;11.70;99.90;;;;;;6188591;23;20067;-66
2023/06/02 05:26:56;;;;;;;13.60;2.45;;;11.70;99.90;;;;;;6187988;23;20024;-66
2023/06/02 05:29:22;;;;;;;8.10;2.50;;;11.70;99.90;;;;;;6188096;23;20017;-66
2023/06/02 05:31:48;;;;;;;6.38;2.00;;;11.70;99.90;;;;;;6189084;23;20013;-67
2023/06/02 05:34:14;;;;;;;11.95;2.58;;;11.70;99.90;;;;;;6160075;23;20041;-66
2023/06/02 05:36:39;;;;;;;9.93;2.15;;;11.80;99.90;;;;;;6188903;23;20044;-66
2023/06/02 05:39:06;;;;;;;9.07;2.28;;;11.80;99.90;;;;;;6186964;23;20710;-66
2023/06/02 05:41:32;;;;;;;5.68;2.03;;;11.80;99.90;;;;;;6188782;23;20073;-66
2023/06/02 05:43:58;;;;;;;9.57;2.88;;;11.90;99.90;;;;;;6187594;23;20047;-66
2023/06/02 05:46:23;;;;;;;7.57;1.83;;;11.90;99.90;;;;;;6188092;23;20019;-66
2023/06/02 05:48:49;;;;;;;8.00;2.00;;;11.90;99.90;;;;;;6188569;23;20035;-66
2023/06/02 05:51:15;;;;;;;10.82;2.55;;;11.90;99.90;;;;;;6186987;23;20683;-66
2023/06/02 05:53:41;;;;;;;9.90;2.28;;;12.00;99.90;;;;;;6188867;23;20029;-66
2023/06/02 05:56:07;;;;;;;12.57;2.78;;;12.00;99.90;;;;;;6186816;23;20024;-66
2023/06/02 05:58:40;;;;;;;20.83;3.85;;;12.00;99.90;;;;;;6188430;23;20504;-66
2023/06/02 06:01:06;;;;;;;11.27;3.05;;;12.10;99.90;;;;;;6188908;23;20124;-66
2023/06/02 06:03:32;;;;;;;7.00;2.13;;;12.00;99.90;;;;;;6189513;23;20021;-66
2023/06/02 06:05:58;;;;;;;11.85;2.28;;;12.00;99.90;;;;;;6190035;23;20052;-66
2023/06/02 06:08:24;;;;;;;8.18;2.25;;;12.10;99.90;;;;;;6188464;23;20017;-66
2023/06/02 06:10:50;;;;;;;8.35;2.20;;;12.10;99.90;;;;;;6190399;23;20032;-66
2023/06/02 06:13:15;;;;;;;15.48;2.80;;;12.10;99.90;;;;;;6188180;23;20418;-66
2023/06/02 06:15:41;;;;;;;13.00;2.50;;;12.10;99.90;;;;;;6188841;23;20304;-66
2023/06/02 06:18:07;;;;;;;10.13;2.53;;;12.10;99.90;;;;;;6187497;23;20024;-66
2023/06/02 06:20:32;;;;;;;10.23;2.03;;;12.10;99.90;;;;;;6188693;23;20021;-66
2023/06/02 06:22:58;;;;;;;12.07;3.20;;;12.20;99.90;;;;;;6188999;23;20057;-66
2023/06/02 06:25:27;;;;;;;14.88;2.70;;;12.30;99.90;;;;;;6187511;23;20021;-65
2023/06/02 06:27:54;;;;;;;11.45;2.97;;;12.30;99.90;;;;;;6162655;23;20025;-65
2023/06/02 06:30:22;;;;;;;11.45;2.60;;;12.30;99.90;;;;;;6186739;23;20048;-66
2023/06/02 06:32:48;;;;;;;10.93;3.03;;;12.30;99.90;;;;;;6189412;23;20017;-66
2023/06/02 06:35:13;;;;;;;7.85;2.22;;;12.30;99.90;;;;;;6188310;23;20025;-65
2023/06/02 06:37:39;;;;;;;13.27;2.80;;;12.40;99.90;;;;;;6189045;23;20104;-66
2023/06/02 06:40:06;;;;;;;11.30;3.67;;;12.50;99.90;;;;;;6189481;23;20103;-66
2023/06/02 06:42:31;;;;;;;11.38;3.28;;;12.40;99.90;;;;;;6161674;23;20044;-66
2023/06/02 06:44:57;;;;;;;10.57;2.65;;;12.40;99.90;;;;;;6190146;23;20542;-66
2023/06/02 06:47:23;;;;;;;13.43;2.92;;;12.40;99.90;;;;;;6187743;23;20048;-66
2023/06/02 06:49:51;;;;;;;18.38;3.17;;;12.40;99.90;;;;;;6189754;23;20092;-66
2023/06/02 06:52:17;;;;;;;14.07;2.67;;;12.50;99.90;;;;;;6188203;23;20016;-66
2023/06/02 06:54:43;;;;;;;9.38;2.33;;;12.40;99.90;;;;;;6189363;23;20020;-66
2023/06/02 06:57:10;;;;;;;17.02;2.85;;;12.50;99.90;;;;;;6189329;23;20025;-66
2023/06/02 06:59:36;;;;;;;13.48;3.03;;;12.50;99.90;;;;;;6188137;23;20021;-67
2023/06/02 07:02:02;;;;;;;12.80;2.45;;;12.60;99.90;;;;;;6189669;23;20047;-66
2023/06/02 07:04:27;;;;;;;10.18;2.92;;;12.60;99.90;;;;;;6187394;23;20052;-66
2023/06/02 07:06:54;;;;;;;14.43;3.83;;;12.60;99.90;;;;;;6189675;23;20029;-66
2023/06/02 07:09:20;;;;;;;10.40;3.10;;;12.70;99.90;;;;;;6188134;23;20024;-66
2023/06/02 07:11:46;;;;;;;16.63;2.67;;;12.70;99.90;;;;;;6199736;23;20031;-67
2023/06/02 07:14:11;;;;;;;17.58;3.90;;;12.80;99.90;;;;;;6200787;23;20017;-66
2023/06/02 07:16:37;;;;;;;17.42;3.20;;;12.80;99.90;;;;;;6191241;23;20756;-66
2023/06/02 07:19:03;;;;;;;11.75;3.10;;;12.90;99.90;;;;;;6190036;23;20020;-66
2023/06/02 07:21:28;;;;;;;19.23;3.28;;;12.90;99.90;;;;;;6187821;23;20027;-66
2023/06/02 07:23:54;;;;;;;20.05;5.47;;;12.90;99.90;;;;;;6190187;23;20021;-66
2023/06/02 07:26:21;;;;;;;16.45;4.32;;;13.00;99.90;;;;;;6188058;23;20020;-70
2023/06/02 07:28:46;;;;;;;15.70;3.40;;;13.10;99.90;;;;;;6193429;23;20017;-67
2023/06/02 07:31:12;;;;;;;16.88;3.88;;;13.30;99.90;;;;;;6204699;23;20047;-66
2023/06/02 07:33:38;;;;;;;18.80;3.40;;;13.20;99.90;;;;;;6200508;23;20044;-66
2023/06/02 07:36:06;;;;;;;13.68;3.88;;;13.30;99.90;;;;;;6201297;23;20040;-65
2023/06/02 07:38:32;;;;;;;16.05;4.65;;;13.30;99.90;;;;;;6193786;23;20013;-65
2023/06/02 07:41:00;;;;;;;20.48;4.43;;;13.30;99.90;;;;;;6192411;23;20012;-65
2023/06/02 07:43:26;;;;;;;21.92;5.00;;;13.20;99.90;;;;;;6188703;23;20580;-66
2023/06/02 07:45:52;;;;;;;15.05;4.18;;;13.30;99.90;;;;;;6188753;23;20017;-66
2023/06/02 07:48:17;;;;;;;16.85;3.45;;;13.30;99.90;;;;;;6184382;23;20024;-68
2023/06/02 07:50:43;;;;;;;14.15;4.05;;;13.40;99.90;;;;;;6185528;23;20056;-67
2023/06/02 07:53:09;;;;;;;21.90;4.57;;;13.40;99.90;;;;;;6187128;23;20088;-66
2023/06/02 07:55:34;;;;;;;10.98;3.97;;;13.50;99.90;;;;;;6185819;23;20070;-67
2023/06/02 07:58:00;;;;;;;13.48;3.85;;;13.40;99.90;;;;;;6187699;23;20032;-66
2023/06/02 08:00:26;;;;;;;10.52;3.90;;;13.40;99.90;;;;;;6185452;23;20021;-68
2023/06/02 08:02:52;;;;;;;25.25;4.93;;;13.40;99.90;;;;;;6187455;23;20009;-68
2023/06/02 08:05:18;;;;;;;13.38;3.95;;;13.40;99.90;;;;;;6186529;23;20027;-66
2023/06/02 08:07:45;;;;;;;19.35;4.70;;;13.40;99.90;;;;;;6187320;23;20021;-67
2023/06/02 08:10:11;;;;;;;19.83;3.95;;;13.40;99.90;;;;;;6187612;23;20060;-67
2023/06/02 08:12:37;;;;;;;17.05;3.80;;;13.50;99.90;;;;;;6185959;23;20017;-66
2023/06/02 08:15:04;;;;;;;14.30;4.43;;;13.50;99.90;;;;;;6187968;23;20481;-66
2023/06/02 08:17:30;;;;;;;21.40;4.97;;;13.70;99.90;;;;;;6185652;23;20455;-67
2023/06/02 08:20:00;;;;;;;14.35;3.95;;;13.70;99.90;;;;;;6188801;23;20012;-66
2023/06/02 08:22:30;;;;;;;14.45;3.83;;;13.80;99.90;;;;;;6187582;23;20024;-66
2023/06/02 08:24:56;;;;;;;15.63;5.15;;;14.10;99.90;;;;;;6188135;23;20414;-65
2023/06/02 08:27:23;;;;;;;18.05;5.70;;;14.20;99.90;;;;;;6188328;23;20056;-66
2023/06/02 08:29:49;;;;;;;17.70;4.25;;;14.40;99.90;;;;;;6186946;23;20032;-66
2023/06/02 08:32:19;;;;;;;19.83;4.30;;;14.50;99.90;;;;;;6189210;23;20072;-67
2023/06/02 08:34:47;;;;;;;17.08;4.57;;;14.40;99.90;;;;;;6187611;23;20074;-66
2023/06/02 08:37:16;;;;;;;16.77;5.18;;;14.50;99.90;;;;;;6189440;23;20017;-65
2023/06/02 08:39:47;;;;;;;11.25;3.80;;;14.50;99.90;;;;;;6188507;23;20067;-66
2023/06/02 08:42:15;;;;;;;20.42;3.85;;;14.80;99.90;;;;;;6188386;23;20048;-66
2023/06/02 08:44:41;;;;;;;21.48;4.43;;;14.90;99.90;;;;;;6189374;23;20056;-70
2023/06/02 08:47:12;;;;;;;17.73;4.88;;;14.90;99.90;;;;;;6161153;23;20021;-66
2023/06/02 08:49:43;;;;;;;16.05;3.90;;;14.90;99.90;;;;;;6162976;23;20029;-66
2023/06/02 08:52:22;;;;;;;19.65;4.05;;;15.00;99.90;;;;;;6187900;23;20059;-66
2023/06/02 08:54:49;;;;;;;9.52;4.00;;;15.00;99.90;;;;;;6188897;23;20013;-67
2023/06/02 08:57:22;;;;;;;13.52;3.92;;;15.10;99.90;;;;;;6188972;23;20128;-67
2023/06/02 08:59:49;;;;;;;15.27;3.75;;;15.40;99.90;;;;;;6187728;23;20052;-66
2023/06/02 09:02:18;;;;;;;18.33;3.95;;;15.70;99.90;;;;;;6189658;23;20148;-66
2023/06/02 09:04:46;;;;;;;23.58;4.40;;;15.80;99.90;;;;;;6187394;23;20474;-66
2023/06/02 09:07:15;;;;;;;17.13;4.18;;;15.80;99.90;;;;;;6189206;23;20092;-66
2023/06/02 09:09:52;;;;;;;14.10;3.38;;;15.90;99.90;;;;;;6188143;23;20037;-67
2023/06/02 09:12:19;;;;;;;12.93;3.28;;;16.00;99.90;;;;;;6187963;23;20013;-66
2023/06/02 09:14:47;;;;;;;11.70;3.22;;;16.00;99.90;;;;;;6189467;23;20156;-66
2023/06/02 09:17:25;;;;;;;15.30;4.10;;;16.10;99.90;;;;;;6187324;23;20447;-66
2023/06/02 09:19:53;;;;;;;16.75;3.63;;;16.10;99.90;;;;;;6189246;23;20017;-66
2023/06/02 09:22:19;;;;;;;12.65;3.10;;;16.10;99.90;;;;;;6187507;23;20036;-66
2023/06/02 09:24:48;;;;;;;18.77;4.45;;;16.20;99.90;;;;;;6188206;23;20028;-66
2023/06/02 09:27:15;;;;;;;9.02;3.15;;;16.20;99.90;;;;;;6188806;23;20084;-66
2023/06/02 09:29:42;;;;;;;10.90;3.20;;;16.30;99.90;;;;;;6187626;23;20024;-66
2023/06/02 09:32:21;;;;;;;13.98;3.13;;;16.30;99.90;;;;;;6189435;23;20702;-66
2023/06/02 09:34:48;;;;;;;14.30;2.90;;;16.50;99.90;;;;;;6187845;23;20069;-66
2023/06/02 09:37:19;;;;;;;15.43;3.50;;;16.70;99.90;;;;;;6190858;23;20219;-66
2023/06/02 09:39:53;;;;;;;14.07;3.92;;;16.80;99.90;;;;;;6190075;23;20025;-67
2023/06/02 09:42:21;;;;;;;12.98;3.85;;;16.80;99.90;;;;;;6189386;23;20067;-66
2023/06/02 09:45:03;;;;;;;14.50;2.70;;;16.90;99.90;;;;;;6191734;23;20040;-66
2023/06/02 09:47:35;;;;;;;16.42;3.17;;;17.10;99.90;;;;;;6189321;23;20456;-65
2023/06/02 09:50:01;;;;;;;11.38;2.58;;;17.20;99.90;;;;;;6190775;23;20024;-66
2023/06/02 09:52:27;;;;;;;9.70;2.72;;;17.40;99.90;;;;;;6189676;23;20013;-66
2023/06/02 09:54:52;;;;;;;9.15;2.42;;;17.50;99.90;;;;;;6189515;23;20024;-66
2023/06/02 09:57:18;;;;;;;8.40;2.40;;;17.60;99.90;;;;;;6190507;23;20048;-66
2023/06/02 09:59:45;;;;;;;8.48;2.05;;;17.60;99.90;;;;;;6188565;23;20029;-66
2023/06/02 10:02:11;;;;;;;10.50;3.40;;;17.60;99.90;;;;;;6190407;23;20017;-67
2023/06/02 10:04:38;;;;;;;6.55;1.95;;;17.60;99.90;;;;;;6188507;23;20044;-66
2023/06/02 10:07:35;;;;;;;7.70;1.85;;;17.60;99.90;;;;;;6163721;23;20017;-66
2023/06/02 10:10:11;;;;;;;7.40;1.77;;;17.80;99.90;;;;;;6189893;23;20072;-66
2023/06/02 10:12:58;;;;;;;5.68;2.00;;;17.70;99.90;;;;;;6188374;23;20045;-66
2023/06/02 10:15:49;;;;;;;7.90;3.42;;;17.80;99.90;;;;;;6190507;23;20013;-66
2023/06/02 10:18:15;;;;;;;9.00;2.10;;;17.70;99.90;;;;;;6189417;23;20071;-67
2023/06/02 10:20:53;;;;;;;10.35;2.10;;;17.80;99.90;;;;;;6190283;23;20017;-66
2023/06/02 10:23:28;;;;;;;9.35;2.00;;;17.80;99.90;;;;;;6192426;23;20080;-67
2023/06/02 10:26:37;;;;;;;4.72;1.60;;;17.90;99.90;;;;;;6193216;23;20047;-67
2023/06/02 10:29:05;;;;;;;7.18;1.92;;;18.20;99.90;;;;;;6201468;23;20032;-67
2023/06/02 10:31:31;;;;;;;5.93;1.88;;;18.20;99.90;;;;;;6200313;23;20021;-67
2023/06/02 10:33:59;;;;;;;13.73;2.28;;;18.30;99.90;;;;;;6199161;23;20028;-67
2023/06/02 10:36:25;;;;;;;8.77;2.05;;;18.30;99.90;;;;;;6193208;23;20068;-68
2023/06/02 10:38:52;;;;;;;7.65;1.88;;;18.20;99.90;;;;;;6189932;23;20024;-66
2023/06/02 10:41:22;;;;;;;7.70;2.10;;;18.10;99.90;;;;;;6190931;23;20028;-66
2023/06/02 10:44:23;;;;;;;6.47;1.83;;;18.00;99.90;;;;;;6189138;23;20025;-67
2023/06/02 10:47:17;;;;;;;9.32;1.70;;;18.00;99.90;;;;;;6189464;23;20024;-66
2023/06/02 10:49:58;;;;;;;5.70;1.80;;;17.90;99.90;;;;;;6190283;23;20024;-67
2023/06/02 10:52:25;;;;;;;6.63;1.80;;;17.90;99.90;;;;;;6189904;23;20021;-68
2023/06/02 10:55:11;;;;;;;4.90;1.50;;;18.00;99.90;;;;;;6188916;23;20379;-67
2023/06/02 10:57:51;;;;;;;6.03;1.30;;;18.10;99.90;;;;;;6190671;23;20021;-67
2023/06/02 11:00:32;;;;;;;9.15;1.98;;;18.10;99.90;;;;;;6188001;23;20032;-67
2023/06/02 11:02:59;;;;;;;7.75;2.40;;;18.10;99.90;;;;;;6190133;23;20028;-66
2023/06/02 11:05:29;;;;;;;7.07;1.85;;;18.00;99.90;;;;;;6194719;23;20021;-66
2023/06/02 11:08:14;;;;;;;2.55;1.45;;;18.10;99.90;;;;;;6170743;23;20027;-66
2023/06/02 11:10:43;;;;;;;5.57;1.45;;;18.10;99.90;;;;;;6194851;23;20025;-67
2023/06/02 11:13:10;;;;;;;4.72;1.65;;;18.10;99.90;;;;;;6189430;23;20025;-67
2023/06/02 11:15:36;;;;;;;3.15;1.15;;;18.10;99.90;;;;;;6190466;23;20044;-65
2023/06/02 11:18:22;;;;;;;5.28;1.40;;;18.00;99.90;;;;;;6189586;23;20031;-66
2023/06/02 11:20:53;;;;;;;5.07;1.10;;;18.00;99.90;;;;;;6188351;23;20028;-66
2023/06/02 11:23:19;;;;;;;3.22;1.55;;;18.00;99.90;;;;;;6189647;23;20416;-68
2023/06/02 11:25:49;;;;;;;3.85;1.33;;;18.20;99.90;;;;;;6186957;23;20060;-65
2023/06/02 11:28:21;;;;;;;5.32;1.83;;;18.30;99.90;;;;;;6189556;23;20017;-66
2023/06/02 11:31:07;;;;;;;1.65;1.02;;;18.40;99.90;;;;;;6188225;23;20044;-66
2023/06/02 11:33:34;;;;;;;3.35;1.15;;;18.50;99.90;;;;;;6188351;23;20036;-65
2023/06/02 11:36:01;;;;;;;1.92;1.20;;;18.50;99.90;;;;;;6189645;23;20078;-66
2023/06/02 11:38:31;;;;;;;3.15;1.40;;;18.40;99.90;;;;;;6135837;23;20027;-66
2023/06/02 11:41:12;;;;;;;2.70;1.20;;;18.40;99.90;;;;;;6189883;23;20017;-64
2023/06/02 11:43:42;;;;;;;3.30;1.40;;;18.30;99.90;;;;;;6187908;23;20048;-65
2023/06/02 11:46:16;;;;;;;4.20;1.55;;;18.30;99.90;;;;;;6188961;23;20121;-65
2023/06/02 11:48:43;;;;;;;6.35;1.75;;;18.40;99.90;;;;;;6189245;23;20021;-65
2023/06/02 11:51:10;;;;;;;2.78;1.30;;;18.50;99.90;;;;;;6187470;23;20017;-66
2023/06/02 11:53:38;;;;;;;2.03;1.27;;;18.60;99.90;;;;;;6189906;23;20032;-66
2023/06/02 11:56:07;;;;;;;3.60;1.30;;;18.60;99.90;;;;;;6161136;23;20025;-66
2023/06/02 11:58:43;;;;;;;5.10;1.60;;;18.50;99.90;;;;;;6188659;23;20073;-66
2023/06/02 12:01:14;;;;;;;4.40;1.58;;;18.60;99.90;;;;;;6188647;23;20052;-65
2023/06/02 12:04:04;;;;;;;3.65;1.20;;;18.60;99.90;;;;;;6163331;23;20045;-66
2023/06/02 12:06:32;;;;;;;2.38;1.13;;;18.60;99.90;;;;;;6172418;23;20025;-66
2023/06/02 12:09:29;;;;;;;3.30;1.13;;;18.50;99.90;;;;;;6187243;23;20192;-66
2023/06/02 12:12:06;;;;;;;1.95;1.00;;;18.70;99.90;;;;;;6146694;23;20031;-66
2023/06/02 12:14:40;;;;;;;4.97;1.30;;;18.70;99.90;;;;;;6189207;23;20009;-66
2023/06/02 12:17:05;;;;;;;3.60;1.30;;;18.80;99.90;;;;;;6187473;23;20610;-66
2023/06/02 12:19:31;;;;;;;3.15;1.10;;;18.80;99.90;;;;;;6189539;23;20021;-65
2023/06/02 12:22:08;;;;;;;3.65;1.02;;;19.00;99.90;;;;;;6187092;23;20017;-66
2023/06/02 12:24:38;;;;;;;2.30;1.00;;;19.00;99.90;;;;;;6188601;23;20565;-66
2023/06/02 12:27:05;;;;;;;4.10;1.42;;;18.90;99.90;;;;;;6188959;23;20102;-66
2023/06/02 12:29:32;;;;;;;5.50;1.00;;;18.90;99.90;;;;;;6187731;23;20072;-65
2023/06/02 12:31:58;;;;;;;3.47;1.45;;;18.90;99.90;;;;;;6189572;23;20017;-66
2023/06/02 12:34:24;;;;;;;2.83;1.00;;;18.80;99.90;;;;;;6186641;23;20031;-65
2023/06/02 12:36:51;;;;;;;2.90;1.10;;;18.70;99.90;;;;;;6188481;23;20023;-66
2023/06/02 12:39:17;;;;;;;5.10;1.40;;;18.80;99.90;;;;;;6187163;23;20017;-65
2023/06/02 12:41:43;;;;;;;2.30;0.95;;;18.80;99.90;;;;;;6188576;23;20033;-66
2023/06/02 12:44:09;;;;;;;2.40;1.50;;;18.90;99.90;;;;;;6188151;23;20025;-65
2023/06/02 12:46:37;;;;;;;3.38;1.40;;;18.90;99.90;;;;;;6187950;23;20021;-65